עמוד ראשי
METAR-TAF:

METAR-TAF

שדות תעופה :

Bisbee Douglas International Airport

Douglas / Bisbee, אריזונה, ארצות הברית

קו רוחב: 31-28-09N, קו אורך: 109-36-13W, גובה: 1266מטר

תצפית מזג אוויר נוכחית

הדו"ח נערך לפני 1 שעות ו 13דקות, בשעה 06:56 UTC
רוח 8קשר מכיוון צפון-מזרח
טמפרטורת 23 צלסיוס
לחות 13%
לחץ 1014 hPa
ראות: 16.1קילומטר
שמיים נקיים

METAR: KDUG 160656Z AUTO 05008KT 10SM CLR 23/M07 A2993 RMK AO2 SLP052 T02331072 403780144

זמן: 01:09 (08:09 UTC)

תחזית

הדו"ח נערך לפני 2 שעות ו 49דקות, בשעה 05:20 UTC
תחזית בתוקף מ 16 ב 06 UTC עד 17 ב 06 UTC
רוח 8קשר מכיוון מערב/צפון-מערב
ראות: 10קילומטר
שמיים נקיים
מ 16 ב 1000UTC
רוח 4קשר עם כיוונים משתנים
ראות: 10קילומטר
שמיים נקיים
מ 16 ב 2000UTC
רוח 12קשר מכיוון מערב/דרום-מערב עם משבים עד 20קשר
ראות: 10קילומטר
שמיים נקיים
מ 17 ב 0200UTC
רוח 9קשר מכיוון מערב
ראות: 10קילומטר
שמיים נקיים

TAF: KDUG 160520Z 1606/1706 29008KT P6SM SKC FM161000 VRB04KT P6SM SKC FM162000 24012G20KT P6SM SKC FM170200 26009KT P6SM SKC

תצפיות ותחזיות מזג אוויר לגבי יותר מ- 4,000 שדות תעופה ברחבי העולם. דוחות METAR ו- TAF.

התחנות הזמינות מסומנות בנקודות צהובות ואדומות על גבי המפה.

העבר את העכבר לנקודה הצבעונית על מנת לראות את שם התחנה.

לאחר מכן, לחץ כדי לראות את תוכן ואת תחזיות מזג האוויר.

כדי לשנות את המפה: לחץ על הכפתורים הירוקים עם הפלוס השחור כדי להתקרב; על הכפתור הירוק עם המקף כדי להתרחק; או בחיצים הירוקים למפות סמוכות.


METAR-TAF: